createdAt,value
2022-10-05T00:02:43.202Z,6.10
2022-10-05T00:05:46.403Z,5.50
2022-10-05T00:08:49.086Z,5.07
2022-10-05T00:11:52.422Z,5.18
2022-10-05T00:15:01.009Z,5.68
2022-10-05T00:18:13.233Z,5.25
2022-10-05T00:21:25.555Z,5.22
2022-10-05T00:24:29.866Z,4.80
2022-10-05T00:27:36.706Z,4.80
2022-10-05T00:30:39.948Z,6.05
2022-10-05T00:33:42.598Z,5.22
2022-10-05T00:36:46.068Z,5.93
2022-10-05T00:39:49.768Z,5.78
2022-10-05T00:43:25.595Z,4.90
2022-10-05T00:46:54.574Z,5.25
2022-10-05T00:50:06.293Z,5.22
2022-10-05T00:53:18.409Z,5.90
2022-10-05T00:56:37.454Z,4.97
2022-10-05T01:00:07.218Z,5.07
2022-10-05T01:03:44.104Z,5.32
2022-10-05T01:07:11.284Z,5.37
2022-10-05T01:10:29.487Z,5.50
2022-10-05T01:14:09.334Z,5.75
2022-10-05T01:17:29.962Z,5.15
2022-10-05T01:20:39.619Z,5.05
2022-10-05T01:23:54.618Z,6.10
2022-10-05T01:27:09.498Z,5.93
2022-10-05T01:30:16.362Z,5.72
2022-10-05T01:33:20.999Z,5.82
2022-10-05T01:36:53.399Z,5.78
2022-10-05T01:40:39.012Z,5.50
2022-10-05T01:43:56.837Z,5.53
2022-10-05T01:47:10.445Z,6.18
2022-10-05T01:50:42.003Z,5.70
2022-10-05T01:54:19.899Z,5.85
2022-10-05T01:58:01.345Z,6.00
2022-10-05T02:01:15.510Z,5.75
2022-10-05T02:05:00.361Z,6.28
2022-10-05T02:08:08.370Z,5.15
2022-10-05T02:11:14.914Z,5.97
2022-10-05T02:14:23.022Z,5.43
2022-10-05T02:17:38.814Z,5.18
2022-10-05T02:20:43.489Z,5.30
2022-10-05T02:23:50.531Z,5.65
2022-10-05T02:26:55.585Z,5.30
2022-10-05T02:30:03.809Z,5.37
2022-10-05T02:33:29.965Z,5.22
2022-10-05T02:36:36.405Z,4.70
2022-10-05T02:39:42.355Z,4.53
2022-10-05T02:43:04.503Z,5.15
2022-10-05T02:46:28.960Z,5.22
2022-10-05T02:49:50.562Z,5.00
2022-10-05T02:53:06.828Z,5.62
2022-10-05T02:56:27.166Z,4.95
2022-10-05T02:59:35.907Z,4.83
2022-10-05T03:03:18.965Z,4.47
2022-10-05T03:06:27.367Z,4.47
2022-10-05T03:09:37.415Z,3.87
2022-10-05T03:13:17.303Z,3.70
2022-10-05T03:16:36.158Z,3.97
2022-10-05T03:19:45.397Z,3.85
2022-10-05T03:22:56.036Z,3.80
2022-10-05T03:26:14.566Z,3.80
2022-10-05T03:29:44.631Z,4.40
2022-10-05T03:32:55.326Z,4.22
2022-10-05T03:36:19.682Z,4.93
2022-10-05T03:39:37.539Z,4.12
2022-10-05T03:43:21.106Z,4.93
2022-10-05T03:47:01.543Z,4.60
2022-10-05T03:50:30.879Z,4.50
2022-10-05T03:54:03.833Z,4.82
2022-10-05T03:57:12.354Z,4.43
2022-10-05T04:00:19.941Z,4.07
2022-10-05T04:03:29.221Z,4.10
2022-10-05T04:06:47.730Z,4.47
2022-10-05T04:09:53.257Z,5.07
2022-10-05T04:13:34.000Z,4.72
2022-10-05T04:16:47.322Z,4.60
2022-10-05T04:20:29.112Z,4.82
2022-10-05T04:23:55.237Z,5.22
2022-10-05T04:27:03.341Z,5.57
2022-10-05T04:30:14.016Z,5.55
2022-10-05T04:33:17.438Z,5.90
2022-10-05T04:36:36.358Z,6.12
2022-10-05T04:39:49.725Z,5.25
2022-10-05T04:42:59.061Z,5.28
2022-10-05T04:46:17.430Z,5.62
2022-10-05T04:49:49.607Z,5.63
2022-10-05T04:53:16.766Z,5.03
2022-10-05T04:56:33.881Z,4.75
2022-10-05T05:00:08.742Z,5.12
2022-10-05T05:03:19.590Z,5.37
2022-10-05T05:06:50.686Z,6.12
2022-10-05T05:09:57.381Z,5.53
2022-10-05T05:13:19.797Z,5.70
2022-10-05T05:16:31.975Z,6.75
2022-10-05T05:20:01.874Z,6.22
2022-10-05T05:23:04.948Z,4.80
2022-10-05T05:26:17.085Z,5.18
2022-10-05T05:30:02.479Z,4.62
2022-10-05T05:33:15.930Z,5.12
2022-10-05T05:36:39.779Z,5.20
2022-10-05T05:40:12.400Z,11.73
2022-10-05T05:43:55.464Z,17.33
2022-10-05T05:47:05.064Z,12.20
2022-10-05T05:50:33.807Z,10.48
2022-10-05T05:54:15.688Z,13.98
2022-10-05T05:57:28.215Z,10.95
2022-10-05T06:01:00.496Z,13.00
2022-10-05T06:04:53.012Z,11.23
2022-10-05T06:08:00.523Z,7.87
2022-10-05T06:11:18.547Z,8.07
2022-10-05T06:14:37.750Z,8.77
2022-10-05T06:17:48.375Z,9.50
2022-10-05T06:21:03.810Z,7.07
2022-10-05T06:24:19.195Z,7.00
2022-10-05T06:27:34.305Z,6.25
2022-10-05T06:30:54.453Z,7.12
2022-10-05T06:34:40.144Z,7.50
2022-10-05T09:40:01.547Z,1.95
2022-10-05T09:43:44.235Z,2.65
2022-10-05T09:47:01.837Z,1.50
2022-10-05T09:50:31.133Z,1.45
2022-10-05T09:54:12.887Z,1.70
2022-10-05T09:57:28.305Z,1.48
2022-10-05T10:01:29.300Z,1.25
2022-10-05T10:05:04.236Z,1.52
2022-10-05T10:08:38.086Z,1.30
2022-10-05T10:12:03.156Z,1.48
2022-10-05T10:15:24.078Z,1.52
2022-10-05T10:18:52.543Z,2.10
2022-10-05T10:22:17.329Z,1.85
2022-10-05T10:25:56.652Z,1.70
2022-10-05T10:29:31.269Z,2.00
2022-10-05T10:32:40.625Z,1.70
2022-10-05T10:36:00.497Z,1.60
2022-10-05T10:39:34.330Z,2.17
2022-10-05T10:43:02.176Z,2.05
2022-10-05T10:46:53.955Z,1.67
2022-10-05T10:50:18.864Z,1.90
2022-10-05T10:54:02.640Z,1.80
2022-10-05T10:57:38.147Z,1.90
2022-10-05T11:01:27.087Z,1.90
2022-10-05T11:04:49.554Z,2.12
2022-10-05T11:08:10.609Z,1.60
2022-10-05T11:11:36.362Z,1.40
2022-10-05T11:15:14.876Z,1.55
2022-10-05T11:18:30.750Z,1.52
2022-10-05T11:21:55.516Z,1.60
2022-10-05T11:25:22.893Z,1.58
2022-10-05T11:28:40.661Z,1.65
2022-10-05T11:32:06.078Z,1.50
2022-10-05T11:35:19.194Z,1.55
2022-10-05T11:38:43.108Z,1.60
2022-10-05T11:42:21.464Z,1.20
2022-10-05T11:45:31.870Z,1.30
2022-10-05T11:48:44.029Z,1.20
2022-10-05T11:52:13.007Z,1.42
2022-10-05T11:55:15.929Z,1.52
2022-10-05T11:58:37.215Z,1.30
2022-10-05T12:02:08.061Z,1.20
2022-10-05T12:05:24.958Z,1.25
2022-10-05T12:08:46.094Z,1.25
2022-10-05T12:12:07.741Z,1.35
2022-10-05T12:15:31.839Z,1.60
2022-10-05T12:18:39.228Z,1.20
2022-10-05T12:21:52.376Z,1.40
2022-10-05T12:25:05.258Z,1.12
2022-10-05T12:28:15.615Z,1.35
2022-10-05T12:31:29.130Z,1.37
2022-10-05T12:35:03.297Z,1.40
2022-10-05T12:38:44.269Z,1.42
2022-10-05T12:42:06.539Z,1.40
2022-10-05T12:45:43.664Z,1.50
2022-10-05T12:49:19.409Z,1.58
2022-10-05T12:52:44.961Z,1.50
2022-10-05T12:56:09.029Z,1.92
2022-10-05T12:59:41.152Z,2.20
2022-10-05T13:02:56.326Z,1.70
2022-10-05T13:06:11.021Z,2.15
2022-10-05T13:09:42.393Z,1.90
2022-10-05T13:12:51.601Z,1.30
2022-10-05T13:16:15.363Z,1.60
2022-10-05T13:19:30.538Z,1.90
2022-10-05T13:23:02.266Z,1.58
2022-10-05T13:26:19.249Z,1.50
2022-10-05T13:29:27.842Z,1.23
2022-10-05T13:32:36.137Z,1.40
2022-10-05T13:35:43.952Z,2.47
2022-10-05T13:38:53.594Z,1.50
2022-10-05T13:42:06.830Z,1.83
2022-10-05T13:45:24.024Z,1.65
2022-10-05T13:49:10.015Z,1.65
2022-10-05T13:52:32.951Z,1.37
2022-10-05T13:56:00.399Z,1.30
2022-10-05T13:59:19.037Z,2.47
2022-10-05T14:02:28.781Z,2.75
2022-10-05T14:05:32.120Z,1.50
2022-10-05T14:08:53.491Z,1.20
2022-10-05T14:12:05.487Z,1.30
2022-10-05T14:15:31.412Z,1.30
2022-10-05T14:18:37.792Z,1.45
2022-10-05T14:22:01.198Z,1.62
2022-10-05T14:25:10.159Z,1.52
2022-10-05T14:28:12.915Z,1.58
2022-10-05T14:31:31.712Z,1.10
2022-10-05T14:34:39.331Z,1.65
2022-10-05T14:37:48.226Z,1.45
2022-10-05T14:41:16.456Z,1.90
2022-10-05T14:44:25.839Z,1.70
2022-10-05T14:47:31.562Z,2.15
2022-10-05T14:50:48.110Z,1.45
2022-10-05T14:54:10.558Z,1.77
2022-10-05T14:57:35.577Z,1.70
2022-10-05T15:00:57.017Z,1.70
2022-10-05T15:04:31.963Z,2.05
2022-10-05T15:07:41.119Z,8.50
2022-10-05T15:13:50.462Z,2.00
2022-10-05T15:16:56.933Z,2.35
2022-10-05T15:20:18.493Z,1.98
2022-10-05T15:23:30.943Z,2.05
2022-10-05T15:26:56.501Z,2.10
2022-10-05T15:30:11.747Z,2.35
2022-10-05T15:33:37.241Z,2.45
2022-10-05T15:36:48.101Z,2.03
2022-10-05T15:39:59.743Z,2.65
2022-10-05T15:43:10.608Z,2.03
2022-10-05T15:46:23.382Z,2.20
2022-10-05T15:49:29.422Z,2.37
2022-10-05T15:52:46.282Z,3.47
2022-10-05T15:55:55.013Z,3.60
2022-10-05T15:59:18.557Z,2.55
2022-10-05T16:02:29.440Z,2.10
2022-10-05T16:06:26.515Z,1.85
2022-10-05T16:09:38.479Z,2.30
2022-10-05T16:12:48.954Z,5.03
2022-10-05T16:16:12.054Z,2.33
2022-10-05T16:19:25.212Z,3.80
2022-10-05T16:23:03.413Z,14.85
2022-10-05T16:26:24.430Z,5.50
2022-10-05T16:29:48.698Z,6.62
2022-10-05T16:33:10.205Z,3.62
2022-10-05T16:36:33.102Z,3.45
2022-10-05T16:40:03.283Z,3.65
2022-10-05T16:43:08.785Z,4.93
2022-10-05T16:46:37.296Z,5.07
2022-10-05T16:49:56.358Z,3.85
2022-10-05T16:53:04.826Z,3.60
2022-10-05T16:56:14.294Z,4.10
2022-10-05T16:59:42.965Z,3.40
2022-10-05T17:03:34.575Z,3.37
2022-10-05T17:06:54.103Z,3.20
2022-10-05T17:10:18.883Z,6.80
2022-10-05T17:13:43.594Z,5.53
2022-10-05T17:17:20.714Z,3.72
2022-10-05T17:20:42.457Z,3.67
2022-10-05T17:24:04.023Z,4.53
2022-10-05T17:27:31.381Z,4.55
2022-10-05T17:30:54.506Z,4.07
2022-10-05T17:34:06.902Z,4.97
2022-10-05T17:37:32.038Z,5.50
2022-10-05T17:40:38.460Z,4.30
2022-10-05T17:44:01.569Z,4.80
2022-10-05T17:47:08.364Z,5.78
2022-10-05T17:50:31.109Z,5.85
2022-10-05T17:53:52.611Z,5.78
2022-10-05T17:56:58.304Z,5.87
2022-10-05T18:00:05.418Z,5.03
2022-10-05T18:03:47.618Z,5.12
2022-10-05T19:42:49.634Z,4.62
2022-10-05T19:46:14.081Z,4.97
2022-10-05T19:49:47.839Z,5.68
2022-10-05T19:53:11.110Z,5.03
2022-10-05T19:56:22.545Z,5.28
2022-10-05T19:59:28.157Z,5.62
2022-10-05T20:02:31.044Z,5.50
2022-10-05T20:05:35.197Z,6.10
2022-10-05T20:08:40.141Z,6.40
2022-10-05T20:11:50.810Z,6.22
2022-10-05T20:15:26.820Z,6.50
2022-10-05T20:19:06.018Z,5.45
2022-10-05T20:22:32.990Z,5.35
2022-10-05T20:25:37.196Z,5.62
2022-10-05T20:28:40.013Z,5.43
2022-10-05T20:31:45.717Z,5.62
2022-10-05T20:34:49.416Z,5.53
2022-10-05T20:37:52.346Z,5.22
2022-10-05T20:40:54.924Z,5.50
2022-10-05T20:43:57.802Z,5.37
2022-10-05T20:47:01.490Z,5.75
2022-10-05T20:50:10.143Z,6.30
2022-10-05T20:53:13.180Z,6.43
2022-10-05T20:56:16.197Z,7.65
2022-10-05T20:59:18.995Z,7.25
2022-10-05T21:02:21.926Z,6.43
2022-10-05T21:05:24.516Z,6.82
2022-10-05T21:08:27.989Z,6.18
2022-10-05T21:11:30.845Z,6.95
2022-10-05T21:14:36.220Z,6.72
2022-10-05T21:17:38.872Z,6.47
2022-10-05T21:20:50.058Z,6.22
2022-10-05T21:23:52.719Z,5.18
2022-10-05T21:26:57.595Z,5.80
2022-10-05T21:30:00.812Z,6.07
2022-10-05T21:33:03.675Z,6.15
2022-10-05T21:36:06.293Z,5.50
2022-10-05T21:39:11.941Z,4.60
2022-10-05T21:42:14.558Z,5.12
2022-10-05T21:45:17.375Z,5.65
2022-10-05T21:48:20.414Z,5.37
2022-10-05T21:51:25.083Z,5.35
2022-10-05T21:54:28.676Z,5.22
2022-10-05T21:57:32.386Z,5.50
2022-10-05T22:00:35.087Z,4.85
2022-10-05T22:03:38.290Z,5.10
2022-10-05T22:06:41.243Z,6.00
2022-10-05T22:09:48.338Z,5.37
2022-10-05T22:12:51.215Z,4.93
2022-10-05T22:15:56.756Z,4.80
2022-10-05T22:19:02.629Z,5.72
2022-10-05T22:22:08.660Z,5.80
2022-10-05T22:25:14.802Z,5.35
2022-10-05T22:28:17.801Z,5.25
2022-10-05T22:31:20.735Z,5.68
2022-10-05T22:34:23.715Z,5.65
2022-10-05T22:37:26.309Z,5.40
2022-10-05T22:40:30.063Z,5.30
2022-10-05T22:43:32.582Z,5.87
2022-10-05T22:46:36.046Z,6.05
2022-10-05T22:49:38.674Z,5.50
2022-10-05T22:52:42.574Z,5.78
2022-10-05T22:55:45.291Z,5.95
2022-10-05T22:58:48.448Z,5.90
2022-10-05T23:01:51.063Z,4.93
2022-10-05T23:04:54.137Z,5.05
2022-10-05T23:07:56.701Z,5.53
2022-10-05T23:11:07.632Z,5.30
2022-10-05T23:14:10.225Z,5.15
2022-10-05T23:17:13.077Z,5.68
2022-10-05T23:20:15.670Z,5.32
2022-10-05T23:23:19.216Z,5.05
2022-10-05T23:26:24.002Z,5.00
2022-10-05T23:29:28.665Z,4.55
2022-10-05T23:32:31.377Z,4.75
2022-10-05T23:35:34.242Z,5.05
2022-10-05T23:38:36.880Z,5.65
2022-10-05T23:41:40.533Z,5.57
2022-10-05T23:44:43.138Z,5.35
2022-10-05T23:47:46.229Z,5.15
2022-10-05T23:50:49.840Z,4.57
2022-10-05T23:53:55.310Z,4.78
2022-10-05T23:56:57.909Z,4.70
